Accueil
METAR-TAF:

METAR-TAF

Aéroports :

Aéroport international de N'Djaména

Ndjamena, Tchad

latitude: 12-08N, longitude: 015-02E, altitude: 295 m

Observation

Le bulletin a été fait il y a 1 heure et 19 minutes, à 13:00 UTC
Vent 9 kt de est/nord-est, variant entre est/nord-est et sud-est
Température 41°C
Humidité 18%
Pression 1003 hPa
Visibilité: 8000 m
Quelques nuages à une hauteur de 4000 ft

METAR: FTTJ 101300Z 07009KT 070V140 8000 FEW040 41/12 Q1003 NOSIG

Heure: 15:19 (14:19 UTC)

Prévision

Le bulletin a été fait il y a 2 heures et 19 minutes, à 12:00 UTC
Prévision valable du 10 à 12 UTC au 11 à 18 UTC
Vent 9 kt de nord/nord-est
Visibilité: 8000 m
Temporairement
du 10 à 15 UTC au 10 à 20 UTC
Visibilité: 4000 m
poussière généralisée

TAF: FTTJ 101200Z 1012/1118 03009KT 8000 NSC TEMPO 1015/1020 4000 DU

Observations et prévisions météorologiques de plus de 4000 aéroports (messages METAR et TAF).

Les stations disponibles sont représentées par des disques jaunes et rouges sur la carte.

Passer la souris dessus pour voir le nom de la station.

Cliquer dessus pour voir les observations et prévisions météorologiques.

Pour changer de carte: cliquez sur les boutons verts avec une croix noire pour zoomer, sur le bouton vert avec un tiret pour effectuer un zoom arrière, ou sur les flèches vertes pour les cartes adjacentes.


METAR-TAF: